sensor_id;sensor_type;location;lat;lon;timestamp;P1;durP1;ratioP1;P2;durP2;ratioP2
48403;SDS011;34202;52.536;6.042;2023-03-14T00:00:31;21.10;;;5.40;;
48403;SDS011;34202;52.536;6.042;2023-03-14T00:05:31;22.30;;;5.60;;
48403;SDS011;34202;52.536;6.042;2023-03-14T00:10:31;17.20;;;4.00;;
48403;SDS011;34202;52.536;6.042;2023-03-14T00:15:32;20.60;;;6.40;;
48403;SDS011;34202;52.536;6.042;2023-03-14T00:20:34;20.80;;;5.40;;
48403;SDS011;34202;52.536;6.042;2023-03-14T00:25:34;19.50;;;4.50;;
48403;SDS011;34202;52.536;6.042;2023-03-14T00:30:37;15.40;;;4.40;;
48403;SDS011;34202;52.536;6.042;2023-03-14T00:35:38;17.60;;;5.40;;
48403;SDS011;34202;52.536;6.042;2023-03-14T00:40:38;12.80;;;4.90;;
48403;SDS011;34202;52.536;6.042;2023-03-14T00:45:39;18.90;;;5.70;;
48403;SDS011;34202;52.536;6.042;2023-03-14T00:50:39;19.20;;;4.40;;
48403;SDS011;34202;52.536;6.042;2023-03-14T00:55:40;17.10;;;4.00;;
48403;SDS011;34202;52.536;6.042;2023-03-14T01:00:42;14.50;;;4.00;;
48403;SDS011;34202;52.536;6.042;2023-03-14T01:05:43;22.40;;;6.00;;
48403;SDS011;34202;52.536;6.042;2023-03-14T01:10:44;21.30;;;4.50;;
48403;SDS011;34202;52.536;6.042;2023-03-14T01:15:44;15.40;;;4.60;;
48403;SDS011;34202;52.536;6.042;2023-03-14T01:20:44;16.30;;;5.70;;
48403;SDS011;34202;52.536;6.042;2023-03-14T01:25:45;25.20;;;5.40;;
48403;SDS011;34202;52.536;6.042;2023-03-14T01:30:45;19.20;;;3.80;;
48403;SDS011;34202;52.536;6.042;2023-03-14T01:35:45;21.60;;;4.60;;
48403;SDS011;34202;52.536;6.042;2023-03-14T01:40:50;22.90;;;4.60;;
48403;SDS011;34202;52.536;6.042;2023-03-14T01:51:06;19.40;;;3.90;;
48403;SDS011;34202;52.536;6.042;2023-03-14T01:56:11;24.90;;;4.20;;
48403;SDS011;34202;52.536;6.042;2023-03-14T02:01:16;13.30;;;3.30;;
48403;SDS011;34202;52.536;6.042;2023-03-14T02:06:21;16.50;;;5.30;;
48403;SDS011;34202;52.536;6.042;2023-03-14T02:11:29;10.70;;;2.30;;
48403;SDS011;34202;52.536;6.042;2023-03-14T02:16:30;11.80;;;3.10;;
48403;SDS011;34202;52.536;6.042;2023-03-14T02:32:20;10.00;;;2.30;;
48403;SDS011;34202;52.536;6.042;2023-03-14T02:37:24;21.20;;;6.30;;
48403;SDS011;34202;52.536;6.042;2023-03-14T02:42:33;12.40;;;3.50;;
48403;SDS011;34202;52.536;6.042;2023-03-14T02:47:33;11.30;;;3.30;;
48403;SDS011;34202;52.536;6.042;2023-03-14T02:52:36;12.80;;;4.90;;
48403;SDS011;34202;52.536;6.042;2023-03-14T02:57:37;12.40;;;3.70;;
48403;SDS011;34202;52.536;6.042;2023-03-14T03:02:38;9.40;;;2.60;;
48403;SDS011;34202;52.536;6.042;2023-03-14T03:07:39;10.00;;;5.20;;
48403;SDS011;34202;52.536;6.042;2023-03-14T03:12:39;15.40;;;3.20;;
48403;SDS011;34202;52.536;6.042;2023-03-14T03:17:39;16.20;;;4.10;;
48403;SDS011;34202;52.536;6.042;2023-03-14T03:22:40;13.20;;;3.10;;
48403;SDS011;34202;52.536;6.042;2023-03-14T03:27:40;8.70;;;3.10;;
48403;SDS011;34202;52.536;6.042;2023-03-14T03:32:41;11.50;;;2.60;;
48403;SDS011;34202;52.536;6.042;2023-03-14T03:37:41;6.40;;;2.70;;
48403;SDS011;34202;52.536;6.042;2023-03-14T03:42:41;8.30;;;3.70;;
48403;SDS011;34202;52.536;6.042;2023-03-14T03:47:42;13.30;;;3.20;;
48403;SDS011;34202;52.536;6.042;2023-03-14T03:52:42;14.50;;;4.50;;
48403;SDS011;34202;52.536;6.042;2023-03-14T03:57:43;12.10;;;4.20;;
48403;SDS011;34202;52.536;6.042;2023-03-14T04:02:43;12.40;;;3.40;;
48403;SDS011;34202;52.536;6.042;2023-03-14T04:07:44;9.90;;;3.50;;
48403;SDS011;34202;52.536;6.042;2023-03-14T04:12:44;9.80;;;3.00;;
48403;SDS011;34202;52.536;6.042;2023-03-14T04:17:44;11.50;;;3.40;;
48403;SDS011;34202;52.536;6.042;2023-03-14T04:22:45;9.30;;;3.80;;
48403;SDS011;34202;52.536;6.042;2023-03-14T04:27:46;11.40;;;4.10;;
48403;SDS011;34202;52.536;6.042;2023-03-14T04:32:47;9.40;;;3.50;;
48403;SDS011;34202;52.536;6.042;2023-03-14T04:37:47;10.30;;;2.70;;
48403;SDS011;34202;52.536;6.042;2023-03-14T04:42:49;12.30;;;3.90;;
48403;SDS011;34202;52.536;6.042;2023-03-14T04:47:49;14.00;;;3.40;;
48403;SDS011;34202;52.536;6.042;2023-03-14T04:52:49;12.90;;;4.90;;
48403;SDS011;34202;52.536;6.042;2023-03-14T04:57:50;11.60;;;4.00;;
48403;SDS011;34202;52.536;6.042;2023-03-14T05:02:50;10.30;;;4.20;;
48403;SDS011;34202;52.536;6.042;2023-03-14T05:07:51;8.50;;;3.10;;
48403;SDS011;34202;52.536;6.042;2023-03-14T05:12:51;14.70;;;2.90;;
48403;SDS011;34202;52.536;6.042;2023-03-14T05:17:51;13.50;;;3.30;;
48403;SDS011;34202;52.536;6.042;2023-03-14T05:22:52;17.00;;;4.10;;
48403;SDS011;34202;52.536;6.042;2023-03-14T05:27:54;7.10;;;3.00;;
48403;SDS011;34202;52.536;6.042;2023-03-14T05:32:55;9.80;;;3.60;;
48403;SDS011;34202;52.536;6.042;2023-03-14T05:37:55;8.70;;;4.10;;
48403;SDS011;34202;52.536;6.042;2023-03-14T05:42:55;15.50;;;3.50;;
48403;SDS011;34202;52.536;6.042;2023-03-14T05:47:56;11.70;;;4.30;;
48403;SDS011;34202;52.536;6.042;2023-03-14T05:52:56;18.80;;;4.40;;
48403;SDS011;34202;52.536;6.042;2023-03-14T05:57:56;10.60;;;4.00;;
48403;SDS011;34202;52.536;6.042;2023-03-14T06:02:57;8.80;;;3.40;;
48403;SDS011;34202;52.536;6.042;2023-03-14T06:07:57;8.00;;;3.60;;
48403;SDS011;34202;52.536;6.042;2023-03-14T06:12:57;11.10;;;4.50;;
48403;SDS011;34202;52.536;6.042;2023-03-14T06:17:58;10.90;;;3.90;;
48403;SDS011;34202;52.536;6.042;2023-03-14T06:22:58;9.40;;;3.60;;
48403;SDS011;34202;52.536;6.042;2023-03-14T06:27:59;8.60;;;3.20;;
48403;SDS011;34202;52.536;6.042;2023-03-14T06:32:59;5.90;;;3.20;;
48403;SDS011;34202;52.536;6.042;2023-03-14T06:37:59;8.30;;;3.50;;
48403;SDS011;34202;52.536;6.042;2023-03-14T06:43:00;6.80;;;3.60;;
48403;SDS011;34202;52.536;6.042;2023-03-14T06:48:00;11.60;;;5.70;;
48403;SDS011;34202;52.536;6.042;2023-03-14T06:53:01;3.90;;;1.40;;
48403;SDS011;34202;52.536;6.042;2023-03-14T06:58:01;2.50;;;1.10;;
48403;SDS011;34202;52.536;6.042;2023-03-14T07:03:02;3.70;;;1.20;;
48403;SDS011;34202;52.536;6.042;2023-03-14T07:08:02;2.80;;;0.90;;
48403;SDS011;34202;52.536;6.042;2023-03-14T07:13:02;5.40;;;1.30;;
48403;SDS011;34202;52.536;6.042;2023-03-14T07:18:03;3.30;;;1.10;;
48403;SDS011;34202;52.536;6.042;2023-03-14T07:23:03;4.40;;;0.80;;
48403;SDS011;34202;52.536;6.042;2023-03-14T07:28:04;6.60;;;1.20;;
48403;SDS011;34202;52.536;6.042;2023-03-14T07:33:04;6.10;;;2.00;;
48403;SDS011;34202;52.536;6.042;2023-03-14T07:38:05;5.40;;;1.40;;
48403;SDS011;34202;52.536;6.042;2023-03-14T07:43:05;4.40;;;1.00;;
48403;SDS011;34202;52.536;6.042;2023-03-14T07:48:06;5.00;;;1.10;;
48403;SDS011;34202;52.536;6.042;2023-03-14T07:53:06;10.20;;;1.30;;
48403;SDS011;34202;52.536;6.042;2023-03-14T07:58:06;4.20;;;1.20;;
48403;SDS011;34202;52.536;6.042;2023-03-14T08:03:07;8.70;;;2.10;;
48403;SDS011;34202;52.536;6.042;2023-03-14T08:08:07;4.50;;;0.60;;
48403;SDS011;34202;52.536;6.042;2023-03-14T08:13:08;4.10;;;0.50;;
48403;SDS011;34202;52.536;6.042;2023-03-14T08:18:09;1.10;;;0.60;;
48403;SDS011;34202;52.536;6.042;2023-03-14T08:23:10;1.80;;;0.40;;
48403;SDS011;34202;52.536;6.042;2023-03-14T08:28:10;1.60;;;0.70;;
48403;SDS011;34202;52.536;6.042;2023-03-14T08:33:11;2.30;;;0.60;;
48403;SDS011;34202;52.536;6.042;2023-03-14T08:38:11;2.30;;;0.50;;
48403;SDS011;34202;52.536;6.042;2023-03-14T08:43:12;0.90;;;0.50;;
48403;SDS011;34202;52.536;6.042;2023-03-14T08:48:12;0.90;;;0.60;;
48403;SDS011;34202;52.536;6.042;2023-03-14T08:53:12;6.00;;;1.00;;
48403;SDS011;34202;52.536;6.042;2023-03-14T08:58:13;3.60;;;0.80;;
48403;SDS011;34202;52.536;6.042;2023-03-14T09:03:13;0.90;;;0.40;;
48403;SDS011;34202;52.536;6.042;2023-03-14T09:08:14;12.20;;;2.60;;
48403;SDS011;34202;52.536;6.042;2023-03-14T09:13:15;6.80;;;1.40;;
48403;SDS011;34202;52.536;6.042;2023-03-14T09:18:15;24.10;;;2.30;;
48403;SDS011;34202;52.536;6.042;2023-03-14T09:23:15;10.90;;;1.40;;
48403;SDS011;34202;52.536;6.042;2023-03-14T09:28:16;4.70;;;1.00;;
48403;SDS011;34202;52.536;6.042;2023-03-14T09:33:16;8.90;;;1.40;;
48403;SDS011;34202;52.536;6.042;2023-03-14T09:38:17;7.10;;;2.30;;
48403;SDS011;34202;52.536;6.042;2023-03-14T09:43:21;9.20;;;3.70;;
48403;SDS011;34202;52.536;6.042;2023-03-14T09:48:26;9.40;;;1.40;;
48403;SDS011;34202;52.536;6.042;2023-03-14T09:53:37;12.90;;;2.00;;
48403;SDS011;34202;52.536;6.042;2023-03-14T09:58:42;14.20;;;3.00;;
48403;SDS011;34202;52.536;6.042;2023-03-14T10:03:44;6.60;;;2.00;;
48403;SDS011;34202;52.536;6.042;2023-03-14T10:08:46;11.80;;;2.60;;
48403;SDS011;34202;52.536;6.042;2023-03-14T10:14:06;13.90;;;1.90;;
48403;SDS011;34202;52.536;6.042;2023-03-14T10:19:12;14.40;;;2.80;;
48403;SDS011;34202;52.536;6.042;2023-03-14T10:24:27;13.70;;;2.40;;
48403;SDS011;34202;52.536;6.042;2023-03-14T10:29:51;16.00;;;3.70;;
48403;SDS011;34202;52.536;6.042;2023-03-14T10:35:07;19.20;;;3.30;;
48403;SDS011;34202;52.536;6.042;2023-03-14T10:40:13;23.80;;;5.70;;
48403;SDS011;34202;52.536;6.042;2023-03-14T10:50:26;4.10;;;1.70;;
48403;SDS011;34202;52.536;6.042;2023-03-14T10:55:28;20.10;;;3.80;;
48403;SDS011;34202;52.536;6.042;2023-03-14T11:00:41;22.30;;;3.10;;
48403;SDS011;34202;52.536;6.042;2023-03-14T11:11:18;19.70;;;3.20;;
48403;SDS011;34202;52.536;6.042;2023-03-14T11:16:27;12.10;;;2.80;;
48403;SDS011;34202;52.536;6.042;2023-03-14T11:32:56;10.90;;;1.30;;
48403;SDS011;34202;52.536;6.042;2023-03-14T11:38:02;11.10;;;1.80;;
48403;SDS011;34202;52.536;6.042;2023-03-14T11:58:41;10.90;;;2.10;;
48403;SDS011;34202;52.536;6.042;2023-03-14T12:03:53;10.80;;;1.70;;
48403;SDS011;34202;52.536;6.042;2023-03-14T12:09:02;6.90;;;1.40;;
48403;SDS011;34202;52.536;6.042;2023-03-14T12:14:15;16.60;;;2.20;;
48403;SDS011;34202;52.536;6.042;2023-03-14T12:24:19;15.40;;;2.30;;
48403;SDS011;34202;52.536;6.042;2023-03-14T12:29:25;6.40;;;1.90;;
48403;SDS011;34202;52.536;6.042;2023-03-14T12:34:27;6.40;;;1.10;;
48403;SDS011;34202;52.536;6.042;2023-03-14T12:44:51;7.80;;;1.20;;
48403;SDS011;34202;52.536;6.042;2023-03-14T12:49:52;9.30;;;2.90;;
48403;SDS011;34202;52.536;6.042;2023-03-14T12:54:58;8.90;;;2.10;;
48403;SDS011;34202;52.536;6.042;2023-03-14T13:00:19;5.00;;;1.20;;
48403;SDS011;34202;52.536;6.042;2023-03-14T13:05:22;8.00;;;1.60;;
48403;SDS011;34202;52.536;6.042;2023-03-14T13:10:25;5.90;;;1.90;;
48403;SDS011;34202;52.536;6.042;2023-03-14T13:15:31;7.90;;;1.80;;
48403;SDS011;34202;52.536;6.042;2023-03-14T13:20:34;5.90;;;1.60;;
48403;SDS011;34202;52.536;6.042;2023-03-14T13:25:36;7.00;;;1.20;;
48403;SDS011;34202;52.536;6.042;2023-03-14T13:30:41;6.90;;;1.20;;
48403;SDS011;34202;52.536;6.042;2023-03-14T13:35:47;9.20;;;2.20;;
48403;SDS011;34202;52.536;6.042;2023-03-14T13:40:50;7.20;;;1.50;;
48403;SDS011;34202;52.536;6.042;2023-03-14T13:46:01;10.40;;;2.10;;
48403;SDS011;34202;52.536;6.042;2023-03-14T13:51:05;10.10;;;2.50;;
48403;SDS011;34202;52.536;6.042;2023-03-14T13:56:09;8.50;;;2.00;;
48403;SDS011;34202;52.536;6.042;2023-03-14T14:11:48;11.40;;;2.60;;
48403;SDS011;34202;52.536;6.042;2023-03-14T14:16:51;7.30;;;1.50;;
48403;SDS011;34202;52.536;6.042;2023-03-14T14:21:52;6.00;;;1.30;;
48403;SDS011;34202;52.536;6.042;2023-03-14T14:26:55;7.20;;;1.20;;
48403;SDS011;34202;52.536;6.042;2023-03-14T14:37:03;9.60;;;1.30;;
48403;SDS011;34202;52.536;6.042;2023-03-14T14:42:03;8.90;;;3.30;;
48403;SDS011;34202;52.536;6.042;2023-03-14T14:47:04;17.30;;;1.90;;
48403;SDS011;34202;52.536;6.042;2023-03-14T14:52:15;9.90;;;1.50;;
48403;SDS011;34202;52.536;6.042;2023-03-14T14:57:21;7.00;;;1.30;;
48403;SDS011;34202;52.536;6.042;2023-03-14T15:02:29;8.00;;;2.00;;
48403;SDS011;34202;52.536;6.042;2023-03-14T15:07:32;15.20;;;1.50;;
48403;SDS011;34202;52.536;6.042;2023-03-14T15:12:32;14.00;;;1.80;;
48403;SDS011;34202;52.536;6.042;2023-03-14T15:17:33;12.30;;;2.40;;
48403;SDS011;34202;52.536;6.042;2023-03-14T15:22:33;9.40;;;2.00;;
48403;SDS011;34202;52.536;6.042;2023-03-14T15:27:34;7.40;;;1.30;;
48403;SDS011;34202;52.536;6.042;2023-03-14T15:32:34;7.60;;;1.50;;
48403;SDS011;34202;52.536;6.042;2023-03-14T15:37:35;5.50;;;1.00;;
48403;SDS011;34202;52.536;6.042;2023-03-14T15:42:35;8.40;;;1.10;;
48403;SDS011;34202;52.536;6.042;2023-03-14T15:47:35;6.80;;;1.60;;
48403;SDS011;34202;52.536;6.042;2023-03-14T15:52:36;5.20;;;1.20;;
48403;SDS011;34202;52.536;6.042;2023-03-14T15:57:37;10.20;;;2.00;;
48403;SDS011;34202;52.536;6.042;2023-03-14T16:02:37;8.10;;;1.70;;
48403;SDS011;34202;52.536;6.042;2023-03-14T16:07:41;10.50;;;1.80;;
48403;SDS011;34202;52.536;6.042;2023-03-14T16:12:41;14.40;;;2.20;;
48403;SDS011;34202;52.536;6.042;2023-03-14T16:17:42;10.30;;;2.50;;
48403;SDS011;34202;52.536;6.042;2023-03-14T16:22:43;9.10;;;1.60;;
48403;SDS011;34202;52.536;6.042;2023-03-14T16:27:43;16.90;;;2.30;;
48403;SDS011;34202;52.536;6.042;2023-03-14T16:32:45;5.00;;;1.30;;
48403;SDS011;34202;52.536;6.042;2023-03-14T16:37:47;12.70;;;2.10;;
48403;SDS011;34202;52.536;6.042;2023-03-14T16:42:47;17.50;;;2.40;;
48403;SDS011;34202;52.536;6.042;2023-03-14T16:47:47;15.60;;;1.80;;
48403;SDS011;34202;52.536;6.042;2023-03-14T16:52:48;8.40;;;1.80;;
48403;SDS011;34202;52.536;6.042;2023-03-14T16:57:48;12.70;;;1.80;;
48403;SDS011;34202;52.536;6.042;2023-03-14T17:02:49;8.90;;;1.90;;
48403;SDS011;34202;52.536;6.042;2023-03-14T17:07:49;7.20;;;1.60;;
48403;SDS011;34202;52.536;6.042;2023-03-14T17:12:49;7.80;;;2.40;;
48403;SDS011;34202;52.536;6.042;2023-03-14T17:17:50;11.50;;;2.70;;
48403;SDS011;34202;52.536;6.042;2023-03-14T17:22:50;8.80;;;1.50;;
48403;SDS011;34202;52.536;6.042;2023-03-14T17:27:50;8.40;;;1.60;;
48403;SDS011;34202;52.536;6.042;2023-03-14T17:32:51;5.20;;;0.90;;
48403;SDS011;34202;52.536;6.042;2023-03-14T17:37:51;13.60;;;1.80;;
48403;SDS011;34202;52.536;6.042;2023-03-14T17:42:52;3.50;;;1.20;;
48403;SDS011;34202;52.536;6.042;2023-03-14T17:47:52;12.40;;;1.80;;
48403;SDS011;34202;52.536;6.042;2023-03-14T17:52:53;12.30;;;1.50;;
48403;SDS011;34202;52.536;6.042;2023-03-14T17:57:53;7.20;;;1.10;;
48403;SDS011;34202;52.536;6.042;2023-03-14T18:02:53;8.30;;;1.20;;
48403;SDS011;34202;52.536;6.042;2023-03-14T18:07:54;4.90;;;1.00;;
48403;SDS011;34202;52.536;6.042;2023-03-14T18:12:54;8.20;;;1.60;;
48403;SDS011;34202;52.536;6.042;2023-03-14T18:17:55;5.90;;;1.20;;
48403;SDS011;34202;52.536;6.042;2023-03-14T18:22:55;6.40;;;1.70;;
48403;SDS011;34202;52.536;6.042;2023-03-14T18:27:55;6.70;;;1.50;;
48403;SDS011;34202;52.536;6.042;2023-03-14T18:32:56;11.70;;;2.20;;
48403;SDS011;34202;52.536;6.042;2023-03-14T18:37:56;10.30;;;2.00;;
48403;SDS011;34202;52.536;6.042;2023-03-14T18:42:56;9.10;;;1.90;;
48403;SDS011;34202;52.536;6.042;2023-03-14T18:47:57;10.70;;;1.90;;
48403;SDS011;34202;52.536;6.042;2023-03-14T18:52:57;7.20;;;1.60;;
48403;SDS011;34202;52.536;6.042;2023-03-14T18:57:57;12.30;;;2.40;;
48403;SDS011;34202;52.536;6.042;2023-03-14T19:02:58;7.60;;;1.80;;
48403;SDS011;34202;52.536;6.042;2023-03-14T19:07:58;5.40;;;1.30;;
48403;SDS011;34202;52.536;6.042;2023-03-14T19:12:59;6.50;;;2.30;;
48403;SDS011;34202;52.536;6.042;2023-03-14T19:17:59;7.90;;;1.60;;
48403;SDS011;34202;52.536;6.042;2023-03-14T19:23:00;8.50;;;1.30;;
48403;SDS011;34202;52.536;6.042;2023-03-14T19:28:00;15.20;;;2.10;;
48403;SDS011;34202;52.536;6.042;2023-03-14T19:33:00;12.90;;;2.50;;
48403;SDS011;34202;52.536;6.042;2023-03-14T19:38:01;6.70;;;1.30;;
48403;SDS011;34202;52.536;6.042;2023-03-14T19:43:02;9.40;;;1.80;;
48403;SDS011;34202;52.536;6.042;2023-03-14T19:48:03;11.30;;;3.10;;
48403;SDS011;34202;52.536;6.042;2023-03-14T19:53:05;12.90;;;2.90;;
48403;SDS011;34202;52.536;6.042;2023-03-14T19:58:08;8.10;;;3.20;;
48403;SDS011;34202;52.536;6.042;2023-03-14T20:03:09;11.50;;;3.60;;
48403;SDS011;34202;52.536;6.042;2023-03-14T20:08:09;10.00;;;2.80;;
48403;SDS011;34202;52.536;6.042;2023-03-14T20:13:10;8.20;;;2.00;;
48403;SDS011;34202;52.536;6.042;2023-03-14T20:18:10;10.30;;;1.90;;
48403;SDS011;34202;52.536;6.042;2023-03-14T20:23:11;26.90;;;3.20;;
48403;SDS011;34202;52.536;6.042;2023-03-14T20:28:13;5.30;;;1.50;;
48403;SDS011;34202;52.536;6.042;2023-03-14T20:33:13;5.80;;;1.20;;
48403;SDS011;34202;52.536;6.042;2023-03-14T20:38:17;9.50;;;2.20;;
48403;SDS011;34202;52.536;6.042;2023-03-14T20:43:18;9.70;;;1.30;;
48403;SDS011;34202;52.536;6.042;2023-03-14T20:48:18;9.40;;;2.30;;
48403;SDS011;34202;52.536;6.042;2023-03-14T20:53:19;8.90;;;1.90;;
48403;SDS011;34202;52.536;6.042;2023-03-14T20:58:20;5.40;;;1.70;;
48403;SDS011;34202;52.536;6.042;2023-03-14T21:03:20;4.60;;;1.70;;
48403;SDS011;34202;52.536;6.042;2023-03-14T21:08:23;12.40;;;3.10;;
48403;SDS011;34202;52.536;6.042;2023-03-14T21:13:24;10.60;;;4.60;;
48403;SDS011;34202;52.536;6.042;2023-03-14T21:18:24;11.70;;;2.70;;
48403;SDS011;34202;52.536;6.042;2023-03-14T21:23:25;4.90;;;2.30;;
48403;SDS011;34202;52.536;6.042;2023-03-14T21:28:26;10.20;;;3.30;;
48403;SDS011;34202;52.536;6.042;2023-03-14T21:33:27;5.50;;;1.60;;
48403;SDS011;34202;52.536;6.042;2023-03-14T21:38:28;9.00;;;3.60;;
48403;SDS011;34202;52.536;6.042;2023-03-14T21:43:28;9.30;;;3.30;;
48403;SDS011;34202;52.536;6.042;2023-03-14T21:48:28;13.30;;;2.40;;
48403;SDS011;34202;52.536;6.042;2023-03-14T21:53:33;9.20;;;3.00;;
48403;SDS011;34202;52.536;6.042;2023-03-14T21:58:34;6.70;;;2.10;;
48403;SDS011;34202;52.536;6.042;2023-03-14T22:03:34;7.60;;;2.10;;
48403;SDS011;34202;52.536;6.042;2023-03-14T22:08:35;13.70;;;2.80;;
48403;SDS011;34202;52.536;6.042;2023-03-14T22:13:35;5.50;;;1.60;;
48403;SDS011;34202;52.536;6.042;2023-03-14T22:18:37;4.30;;;2.00;;
48403;SDS011;34202;52.536;6.042;2023-03-14T22:23:37;9.70;;;1.90;;
48403;SDS011;34202;52.536;6.042;2023-03-14T22:28:38;8.20;;;1.80;;
48403;SDS011;34202;52.536;6.042;2023-03-14T22:33:38;9.70;;;1.50;;
48403;SDS011;34202;52.536;6.042;2023-03-14T22:38:38;9.60;;;1.60;;
48403;SDS011;34202;52.536;6.042;2023-03-14T22:43:39;1.60;;;0.80;;
48403;SDS011;34202;52.536;6.042;2023-03-14T22:48:39;6.60;;;1.20;;
48403;SDS011;34202;52.536;6.042;2023-03-14T22:53:39;3.50;;;1.20;;
48403;SDS011;34202;52.536;6.042;2023-03-14T22:58:40;3.60;;;1.30;;
48403;SDS011;34202;52.536;6.042;2023-03-14T23:03:40;4.50;;;1.20;;
48403;SDS011;34202;52.536;6.042;2023-03-14T23:08:41;2.20;;;1.30;;
48403;SDS011;34202;52.536;6.042;2023-03-14T23:13:41;5.20;;;1.30;;
48403;SDS011;34202;52.536;6.042;2023-03-14T23:18:42;3.70;;;1.00;;
48403;SDS011;34202;52.536;6.042;2023-03-14T23:23:43;3.40;;;1.00;;
48403;SDS011;34202;52.536;6.042;2023-03-14T23:28:48;3.00;;;1.00;;
48403;SDS011;34202;52.536;6.042;2023-03-14T23:33:49;1.80;;;1.10;;
48403;SDS011;34202;52.536;6.042;2023-03-14T23:38:49;5.40;;;1.50;;
48403;SDS011;34202;52.536;6.042;2023-03-14T23:43:50;3.80;;;1.00;;
48403;SDS011;34202;52.536;6.042;2023-03-14T23:48:50;2.90;;;1.20;;
48403;SDS011;34202;52.536;6.042;2023-03-14T23:53:51;6.00;;;2.30;;
48403;SDS011;34202;52.536;6.042;2023-03-14T23:58:51;5.90;;;1.20;;
